createdAt,value
2018-01-29T00:01:20.489Z,2.80
2018-01-29T00:03:48.331Z,3.20
2018-01-29T00:06:15.911Z,4.13
2018-01-29T00:08:43.496Z,2.90
2018-01-29T00:11:11.096Z,3.50
2018-01-29T00:13:38.685Z,4.20
2018-01-29T00:16:06.340Z,3.57
2018-01-29T00:18:33.937Z,3.87
2018-01-29T00:21:01.565Z,3.20
2018-01-29T00:23:29.170Z,3.60
2018-01-29T00:25:56.746Z,3.77
2018-01-29T00:28:24.402Z,3.87
2018-01-29T00:30:51.995Z,3.67
2018-01-29T00:33:19.629Z,4.33
2018-01-29T00:35:47.222Z,4.10
2018-01-29T00:38:15.096Z,3.87
2018-01-29T00:40:42.693Z,3.97
2018-01-29T00:43:10.274Z,3.60
2018-01-29T00:45:37.890Z,3.20
2018-01-29T00:48:05.505Z,3.03
2018-01-29T00:50:33.135Z,3.33
2018-01-29T00:53:00.727Z,3.10
2018-01-29T00:55:28.320Z,3.40
2018-01-29T00:57:55.928Z,3.43
2018-01-29T01:00:23.524Z,3.00
2018-01-29T01:02:51.174Z,3.10
2018-01-29T01:05:18.843Z,3.23
2018-01-29T01:07:46.456Z,3.23
2018-01-29T01:10:14.053Z,3.20
2018-01-29T01:12:41.634Z,2.70
2018-01-29T01:15:09.235Z,3.47
2018-01-29T01:17:36.825Z,3.83
2018-01-29T01:20:04.734Z,3.20
2018-01-29T01:22:32.325Z,2.77
2018-01-29T01:24:59.914Z,3.10
2018-01-29T01:27:27.527Z,3.00
2018-01-29T01:29:55.121Z,2.00
2018-01-29T01:32:22.732Z,2.43
2018-01-29T01:34:50.341Z,2.47
2018-01-29T01:37:17.971Z,3.10
2018-01-29T01:39:45.557Z,2.73
2018-01-29T01:42:13.157Z,2.60
2018-01-29T01:44:40.831Z,2.50
2018-01-29T01:47:08.426Z,2.57
2018-01-29T01:49:36.036Z,2.63
2018-01-29T01:52:05.142Z,2.50
2018-01-29T01:54:32.764Z,2.87
2018-01-29T01:57:00.351Z,3.17
2018-01-29T01:59:27.939Z,2.50
2018-01-29T02:01:55.560Z,1.97
2018-01-29T02:04:23.157Z,1.70
2018-01-29T02:06:51.063Z,1.93
2018-01-29T02:09:18.643Z,2.40
2018-01-29T02:11:46.235Z,1.50
2018-01-29T02:14:13.835Z,1.90
2018-01-29T02:16:41.415Z,1.50
2018-01-29T02:19:09.034Z,1.63
2018-01-29T02:21:36.620Z,1.73
2018-01-29T02:24:04.212Z,1.60
2018-01-29T02:26:31.856Z,1.60
2018-01-29T02:28:59.442Z,1.43
2018-01-29T02:31:27.107Z,1.90
2018-01-29T02:33:54.687Z,1.43
2018-01-29T02:36:22.303Z,1.27
2018-01-29T02:38:49.891Z,1.83
2018-01-29T02:41:17.485Z,1.27
2018-01-29T02:43:45.103Z,1.40
2018-01-29T02:46:12.697Z,1.37
2018-01-29T02:48:40.345Z,1.30
2018-01-29T02:51:07.955Z,1.37
2018-01-29T02:53:35.589Z,1.40
2018-01-29T02:56:03.186Z,1.67
2018-01-29T02:58:30.769Z,2.50
2018-01-29T03:00:58.382Z,1.70
2018-01-29T03:03:25.976Z,1.63
2018-01-29T03:05:53.587Z,2.10
2018-01-29T03:08:21.695Z,11.53
2018-01-29T03:10:49.647Z,4.13
2018-01-29T03:13:17.237Z,1.97
2018-01-29T03:15:44.818Z,2.33
2018-01-29T03:18:12.419Z,1.50
2018-01-29T03:20:40.020Z,1.47
2018-01-29T03:23:07.643Z,1.50
2018-01-29T03:25:35.224Z,1.27
2018-01-29T03:28:03.158Z,1.10
2018-01-29T03:30:30.747Z,1.20
2018-01-29T03:32:58.388Z,1.10
2018-01-29T03:35:25.986Z,1.00
2018-01-29T03:37:53.596Z,1.00
2018-01-29T03:40:21.215Z,1.33
2018-01-29T03:42:48.796Z,1.00
2018-01-29T03:45:16.588Z,1.40
2018-01-29T03:47:44.220Z,1.03
2018-01-29T03:50:11.812Z,1.03
2018-01-29T03:52:39.421Z,0.97
2018-01-29T03:55:07.019Z,1.40
2018-01-29T03:57:34.684Z,1.17
2018-01-29T04:00:02.271Z,1.20
2018-01-29T04:02:30.228Z,1.13
2018-01-29T04:04:57.833Z,1.20
2018-01-29T04:07:25.452Z,1.30
2018-01-29T04:09:53.060Z,1.20
2018-01-29T04:12:20.742Z,1.90
2018-01-29T04:14:48.356Z,1.30
2018-01-29T04:17:15.938Z,1.40
2018-01-29T04:19:43.764Z,1.40
2018-01-29T04:22:11.360Z,1.80
2018-01-29T04:24:38.954Z,1.40
2018-01-29T04:27:06.576Z,2.00
2018-01-29T04:29:34.171Z,1.47
2018-01-29T04:32:01.785Z,1.50
2018-01-29T04:34:29.366Z,2.63
2018-01-29T04:36:57.192Z,1.90
2018-01-29T04:39:24.769Z,1.97
2018-01-29T04:41:52.415Z,1.87
2018-01-29T04:44:20.031Z,1.77
2018-01-29T04:46:47.612Z,1.67
2018-01-29T04:49:15.215Z,2.27
2018-01-29T04:51:42.801Z,2.17
2018-01-29T04:54:10.713Z,1.87
2018-01-29T04:56:38.388Z,1.90
2018-01-29T04:59:05.972Z,2.20
2018-01-29T05:01:33.595Z,1.60
2018-01-29T05:04:01.271Z,1.53
2018-01-29T05:06:28.889Z,1.60
2018-01-29T05:08:56.483Z,1.43
2018-01-29T05:11:24.123Z,2.17
2018-01-29T05:13:51.712Z,1.83
2018-01-29T05:16:19.303Z,1.37
2018-01-29T05:18:46.915Z,1.67
2018-01-29T05:21:14.505Z,1.30
2018-01-29T05:23:42.114Z,1.50
2018-01-29T05:26:09.694Z,1.53
2018-01-29T05:28:37.333Z,0.80
2018-01-29T05:31:04.928Z,1.30
2018-01-29T05:33:32.531Z,1.43
2018-01-29T05:39:09.560Z,1.80
2018-01-29T05:41:37.136Z,1.57
2018-01-29T05:44:04.751Z,2.00
2018-01-29T05:46:32.349Z,2.13
2018-01-29T05:48:59.932Z,2.27
2018-01-29T05:51:27.554Z,2.03
2018-01-29T05:53:55.139Z,1.47
2018-01-29T05:56:23.127Z,1.90
2018-01-29T05:58:50.740Z,1.70
2018-01-29T06:01:18.327Z,2.00
2018-01-29T06:03:45.935Z,2.13
2018-01-29T06:06:13.535Z,2.20
2018-01-29T06:08:41.152Z,1.53
2018-01-29T06:11:08.737Z,1.33
2018-01-29T06:13:36.558Z,2.00
2018-01-29T06:16:04.150Z,2.00
2018-01-29T06:18:31.755Z,2.50
2018-01-29T06:20:59.366Z,1.70
2018-01-29T06:23:26.946Z,1.87
2018-01-29T06:25:54.607Z,1.60
2018-01-29T06:28:22.194Z,1.57
2018-01-29T06:30:49.847Z,1.77
2018-01-29T06:33:17.442Z,2.03
2018-01-29T06:35:45.055Z,1.97
2018-01-29T06:38:12.698Z,2.43
2018-01-29T06:40:40.280Z,1.30
2018-01-29T06:43:08.525Z,2.10
2018-01-29T06:45:36.121Z,2.00
2018-01-29T06:48:03.912Z,1.63
2018-01-29T06:50:31.541Z,2.43
2018-01-29T06:52:59.149Z,1.67
2018-01-29T06:55:26.768Z,1.20
2018-01-29T06:57:54.355Z,1.50
2018-01-29T07:00:21.965Z,1.53
2018-01-29T07:02:49.555Z,0.87
2018-01-29T07:05:17.201Z,1.07
2018-01-29T07:07:44.790Z,1.07
2018-01-29T07:10:12.374Z,1.20
2018-01-29T07:12:39.992Z,1.30
2018-01-29T07:15:07.587Z,1.10
2018-01-29T07:17:35.197Z,1.33
2018-01-29T07:20:02.800Z,1.03
2018-01-29T07:22:30.441Z,1.20
2018-01-29T07:24:58.034Z,0.93
2018-01-29T07:27:25.625Z,1.30
2018-01-29T07:29:53.241Z,1.10
2018-01-29T07:32:20.854Z,1.00
2018-01-29T07:34:48.469Z,1.50
2018-01-29T07:37:16.064Z,1.13
2018-01-29T07:39:43.692Z,0.73
2018-01-29T07:42:11.302Z,1.23
2018-01-29T07:44:38.896Z,0.97
2018-01-29T07:47:06.520Z,0.90
2018-01-29T07:49:34.118Z,1.10
2018-01-29T07:52:01.736Z,1.00
2018-01-29T07:54:29.324Z,2.07
2018-01-29T07:56:57.264Z,0.97
2018-01-29T07:59:24.886Z,0.83
2018-01-29T08:01:52.496Z,0.83
2018-01-29T08:04:20.114Z,0.87
2018-01-29T08:06:47.717Z,0.97
2018-01-29T08:09:15.403Z,1.00
2018-01-29T08:11:42.988Z,1.70
2018-01-29T08:14:10.594Z,1.00
2018-01-29T08:16:38.235Z,0.70
2018-01-29T08:19:11.607Z,1.27
2018-01-29T08:21:39.919Z,1.10
2018-01-29T08:24:07.630Z,1.80
2018-01-29T08:26:35.273Z,1.87
2018-01-29T08:29:02.888Z,1.87
2018-01-29T08:31:31.208Z,1.17
2018-01-29T08:33:59.041Z,0.93
2018-01-29T08:36:26.641Z,1.20
2018-01-29T08:38:54.236Z,1.47
2018-01-29T08:41:21.861Z,1.60
2018-01-29T08:43:49.473Z,1.03
2018-01-29T08:46:17.109Z,1.60
2018-01-29T08:48:44.705Z,1.10
2018-01-29T08:51:12.668Z,1.40
2018-01-29T08:53:40.268Z,1.40
2018-01-29T08:56:07.892Z,1.60
2018-01-29T08:58:35.510Z,1.57
2018-01-29T09:01:03.116Z,1.50
2018-01-29T09:03:30.926Z,1.57
2018-01-29T09:05:58.533Z,0.97
2018-01-29T09:08:26.172Z,0.90
2018-01-29T09:10:53.768Z,1.13
2018-01-29T09:13:21.361Z,1.30
2018-01-29T09:15:48.977Z,1.37
2018-01-29T09:18:16.652Z,1.23
2018-01-29T09:20:44.629Z,1.50
2018-01-29T09:23:12.469Z,1.80
2018-01-29T09:25:40.149Z,1.30
2018-01-29T09:28:07.774Z,2.27
2018-01-29T09:30:35.405Z,1.33
2018-01-29T09:33:03.056Z,1.17
2018-01-29T09:35:31.002Z,1.10
2018-01-29T09:37:58.664Z,1.00
2018-01-29T09:40:26.312Z,1.40
2018-01-29T09:42:53.903Z,1.50
2018-01-29T09:45:21.528Z,1.00
2018-01-29T09:47:49.129Z,1.57
2018-01-29T09:50:17.152Z,1.27
2018-01-29T09:52:44.759Z,1.10
2018-01-29T09:55:12.361Z,1.33
2018-01-29T09:57:39.991Z,1.50
2018-01-29T10:00:07.618Z,1.10
2018-01-29T10:02:35.243Z,1.30
2018-01-29T10:05:02.836Z,3.10
2018-01-29T10:07:30.720Z,1.13
2018-01-29T10:09:58.307Z,1.20
2018-01-29T10:12:25.883Z,1.47
2018-01-29T10:14:53.479Z,1.17
2018-01-29T10:17:22.096Z,1.33
2018-01-29T10:19:49.892Z,1.00
2018-01-29T10:22:17.556Z,1.37
2018-01-29T10:24:45.374Z,1.00
2018-01-29T10:27:12.968Z,2.00
2018-01-29T10:29:40.558Z,1.27
2018-01-29T10:32:08.415Z,0.87
2018-01-29T10:34:36.002Z,1.20
2018-01-29T10:37:03.620Z,1.87
2018-01-29T10:39:31.268Z,1.10
2018-01-29T10:41:58.920Z,0.70
2018-01-29T10:44:26.512Z,1.30
2018-01-29T10:46:55.349Z,1.20
2018-01-29T10:49:27.690Z,1.40
2018-01-29T10:51:58.752Z,2.50
2018-01-29T10:54:29.883Z,1.20
2018-01-29T10:57:01.612Z,1.17
2018-01-29T10:59:32.174Z,0.87
2018-01-29T11:02:05.290Z,1.10
2018-01-29T11:04:34.347Z,0.80
2018-01-29T11:07:03.378Z,0.80
2018-01-29T11:09:36.026Z,1.47
2018-01-29T11:12:05.243Z,0.90
2018-01-29T11:14:37.545Z,1.20
2018-01-29T11:17:05.158Z,1.20
2018-01-29T11:19:33.579Z,1.57
2018-01-29T11:22:14.215Z,1.47
2018-01-29T11:24:45.212Z,1.10
2018-01-29T11:27:16.564Z,0.93
2018-01-29T11:29:45.017Z,0.80
2018-01-29T11:32:12.603Z,1.43
2018-01-29T11:34:53.031Z,1.63
2018-01-29T11:37:20.654Z,1.40
2018-01-29T11:39:49.475Z,1.00
2018-01-29T11:42:30.500Z,0.83
2018-01-29T11:45:01.066Z,0.90
2018-01-29T11:47:28.688Z,0.90
2018-01-29T11:49:58.919Z,1.27
2018-01-29T11:52:39.298Z,1.30
2018-01-29T11:55:18.308Z,1.30
2018-01-29T11:57:46.045Z,1.13
2018-01-29T12:00:18.792Z,1.10
2018-01-29T12:02:48.045Z,0.93
2018-01-29T12:05:15.642Z,1.70
2018-01-29T12:07:45.211Z,1.37
2018-01-29T12:10:12.791Z,3.10
2018-01-29T12:12:40.490Z,1.10
2018-01-29T12:15:09.872Z,1.10
2018-01-29T12:17:38.363Z,1.97
2018-01-29T12:20:15.016Z,1.20
2018-01-29T12:22:47.109Z,1.53
2018-01-29T12:25:16.418Z,1.27
2018-01-29T12:27:44.131Z,1.10
2018-01-29T12:30:17.176Z,0.90
2018-01-29T12:32:44.908Z,1.00
2018-01-29T12:35:13.295Z,1.23
2018-01-29T12:37:42.315Z,0.97
2018-01-29T12:40:21.211Z,1.00
2018-01-29T12:42:53.196Z,0.87
2018-01-29T12:45:21.037Z,1.50
2018-01-29T12:47:48.647Z,1.37
2018-01-29T12:50:16.240Z,1.00
2018-01-29T12:52:43.850Z,1.80
2018-01-29T12:55:11.450Z,1.70
2018-01-29T12:57:39.055Z,0.70
2018-01-29T13:00:06.659Z,0.97
2018-01-29T13:02:34.287Z,1.47
2018-01-29T13:05:01.903Z,0.80
2018-01-29T13:07:30.387Z,1.07
2018-01-29T13:09:57.972Z,1.00
2018-01-29T13:12:25.897Z,1.03
2018-01-29T13:14:53.753Z,1.90
2018-01-29T13:17:21.376Z,1.07
2018-01-29T13:19:48.975Z,0.70
2018-01-29T13:22:16.685Z,1.07
2018-01-29T13:24:44.280Z,1.80
2018-01-29T13:27:11.895Z,1.33
2018-01-29T13:29:42.446Z,2.20
2018-01-29T13:32:10.103Z,2.10
2018-01-29T13:34:37.991Z,1.10
2018-01-29T13:37:05.607Z,1.50
2018-01-29T13:39:33.190Z,1.40
2018-01-29T13:42:00.822Z,1.40
2018-01-29T13:44:28.404Z,1.63
2018-01-29T13:46:56.017Z,1.07
2018-01-29T13:49:24.226Z,1.00
2018-01-29T13:51:51.812Z,1.10
2018-01-29T13:54:20.108Z,1.20
2018-01-29T13:56:48.239Z,2.03
2018-01-29T13:59:15.859Z,1.33
2018-01-29T14:01:54.167Z,1.43
2018-01-29T14:04:30.836Z,1.27
2018-01-29T14:06:59.309Z,1.40
2018-01-29T14:09:28.715Z,1.93
2018-01-29T14:11:57.056Z,1.17
2018-01-29T14:14:30.667Z,1.90
2018-01-29T14:16:58.256Z,0.70
2018-01-29T14:19:25.859Z,1.40
2018-01-29T14:21:53.439Z,1.13
2018-01-29T14:24:21.749Z,1.27
2018-01-29T14:26:51.187Z,0.90
2018-01-29T14:29:31.055Z,0.97
2018-01-29T14:32:00.522Z,1.23
2018-01-29T14:34:30.629Z,0.80
2018-01-29T14:36:58.939Z,1.80
2018-01-29T14:39:26.559Z,1.17
2018-01-29T14:41:57.712Z,0.93
2018-01-29T14:44:32.883Z,1.20
2018-01-29T14:47:03.621Z,1.63
2018-01-29T14:49:31.512Z,0.87
2018-01-29T14:51:59.415Z,0.80
2018-01-29T14:54:29.679Z,1.10
2018-01-29T14:56:57.268Z,1.20
2018-01-29T14:59:26.702Z,1.50
2018-01-29T15:01:54.979Z,1.10
2018-01-29T15:04:25.535Z,1.30
2018-01-29T15:07:05.955Z,1.37
2018-01-29T15:09:39.982Z,1.10
2018-01-29T15:12:08.636Z,1.47
2018-01-29T15:14:46.966Z,1.40
2018-01-29T15:17:17.670Z,1.40
2018-01-29T15:19:45.402Z,0.90
2018-01-29T15:22:12.982Z,1.00
2018-01-29T15:24:56.984Z,1.07
2018-01-29T15:27:29.113Z,1.47
2018-01-29T15:29:56.724Z,1.30
2018-01-29T15:32:25.120Z,1.40
2018-01-29T15:34:54.920Z,1.23
2018-01-29T15:37:36.193Z,1.00
2018-01-29T15:40:17.657Z,0.93
2018-01-29T15:42:46.048Z,1.20
2018-01-29T15:45:13.640Z,1.17
2018-01-29T15:47:41.261Z,1.27
2018-01-29T15:50:08.856Z,1.70
2018-01-29T15:52:36.468Z,1.30
2018-01-29T15:55:05.043Z,0.70
2018-01-29T15:57:32.651Z,1.27
2018-01-29T16:00:00.368Z,1.00
2018-01-29T16:02:28.029Z,1.30
2018-01-29T16:04:55.623Z,1.17
2018-01-29T16:07:23.220Z,1.20
2018-01-29T16:09:50.828Z,1.80
2018-01-29T16:12:18.846Z,1.40
2018-01-29T16:14:46.476Z,1.10
2018-01-29T16:17:14.075Z,1.23
2018-01-29T16:19:41.704Z,1.40
2018-01-29T16:22:09.292Z,1.03
2018-01-29T16:24:37.131Z,1.20
2018-01-29T16:27:04.710Z,1.17
2018-01-29T16:29:32.295Z,1.20
2018-01-29T16:31:59.911Z,1.43
2018-01-29T16:34:27.502Z,1.23
2018-01-29T16:36:55.103Z,1.80
2018-01-29T16:39:22.690Z,1.27
2018-01-29T16:41:50.305Z,1.10
2018-01-29T16:44:17.886Z,1.20
2018-01-29T16:46:45.497Z,1.27
2018-01-29T16:49:13.133Z,1.20
2018-01-29T16:51:40.766Z,1.07
2018-01-29T16:54:08.352Z,1.00
2018-01-29T16:56:35.934Z,1.17
2018-01-29T16:59:03.559Z,1.33
2018-01-29T17:01:31.153Z,1.90
2018-01-29T17:03:58.775Z,1.80
2018-01-29T17:06:26.358Z,1.30
2018-01-29T17:08:53.972Z,1.97
2018-01-29T17:11:21.563Z,1.93
2018-01-29T17:13:49.195Z,1.63
2018-01-29T17:16:16.812Z,1.83
2018-01-29T17:18:44.463Z,1.47
2018-01-29T17:21:12.059Z,1.90
2018-01-29T17:23:39.685Z,2.00
2018-01-29T17:26:07.293Z,1.30
2018-01-29T17:28:34.921Z,1.63
2018-01-29T17:31:02.535Z,2.60
2018-01-29T17:33:30.141Z,1.60
2018-01-29T17:35:57.803Z,1.43
2018-01-29T17:38:25.398Z,1.80
2018-01-29T17:40:53.021Z,1.80
2018-01-29T17:43:20.655Z,1.70
2018-01-29T17:45:48.273Z,1.80
2018-01-29T17:48:16.034Z,1.67
2018-01-29T17:50:43.642Z,1.83
2018-01-29T17:53:11.331Z,1.53
2018-01-29T17:55:38.977Z,1.50
2018-01-29T17:58:06.620Z,2.00
2018-01-29T18:00:34.255Z,1.63
2018-01-29T18:03:01.868Z,1.60
2018-01-29T18:05:29.462Z,1.47
2018-01-29T18:07:57.079Z,1.83
2018-01-29T18:10:24.663Z,1.17
2018-01-29T18:12:52.284Z,1.43
2018-01-29T18:15:19.875Z,1.70
2018-01-29T18:17:47.506Z,1.60
2018-01-29T18:20:15.098Z,1.63
2018-01-29T18:22:42.722Z,1.30
2018-01-29T18:25:10.316Z,2.53
2018-01-29T18:27:37.978Z,2.13
2018-01-29T18:30:05.569Z,1.77
2018-01-29T18:32:33.177Z,2.17
2018-01-29T18:35:00.789Z,2.10
2018-01-29T18:37:28.379Z,1.70
2018-01-29T18:39:56.033Z,1.60
2018-01-29T18:42:23.652Z,1.70
2018-01-29T18:44:51.267Z,2.17
2018-01-29T18:47:18.875Z,1.90
2018-01-29T18:49:49.520Z,2.00
2018-01-29T18:52:19.348Z,2.10
2018-01-29T18:54:54.672Z,1.87
2018-01-29T18:57:22.261Z,2.07
2018-01-29T18:59:52.063Z,1.90
2018-01-29T19:02:19.657Z,1.73
2018-01-29T19:04:47.923Z,1.43
2018-01-29T19:07:15.527Z,2.10
2018-01-29T19:09:46.322Z,1.73
2018-01-29T19:12:15.211Z,1.20
2018-01-29T19:14:46.410Z,1.40
2018-01-29T19:17:19.053Z,1.30
2018-01-29T19:19:46.691Z,1.43
2018-01-29T19:22:16.116Z,1.33
2018-01-29T19:24:43.759Z,1.60
2018-01-29T19:27:12.328Z,1.70
2018-01-29T19:29:40.919Z,1.50
2018-01-29T19:32:08.589Z,1.73
2018-01-29T19:34:40.045Z,1.60
2018-01-29T19:37:07.669Z,1.47
2018-01-29T19:39:40.614Z,1.83
2018-01-29T19:42:11.127Z,1.20
2018-01-29T19:44:49.774Z,1.33
2018-01-29T19:47:18.138Z,1.23
2018-01-29T19:49:45.774Z,1.10
2018-01-29T19:52:13.397Z,1.30
2018-01-29T19:54:41.042Z,1.00
2018-01-29T19:57:08.628Z,1.70
2018-01-29T19:59:36.252Z,1.40
2018-01-29T20:02:03.883Z,1.30
2018-01-29T20:04:31.811Z,1.40
2018-01-29T20:06:59.415Z,1.27
2018-01-29T20:09:27.027Z,1.40
2018-01-29T20:11:54.637Z,1.20
2018-01-29T20:14:22.222Z,1.47
2018-01-29T20:16:49.833Z,1.23
2018-01-29T20:19:17.432Z,1.23
2018-01-29T20:21:45.044Z,1.40
2018-01-29T20:24:12.644Z,1.33
2018-01-29T20:26:40.484Z,1.50
2018-01-29T20:29:08.080Z,1.30
2018-01-29T20:31:35.656Z,1.60
2018-01-29T20:34:03.282Z,1.00
2018-01-29T20:36:30.872Z,1.27
2018-01-29T20:38:58.480Z,1.37
2018-01-29T20:41:26.068Z,1.70
2018-01-29T20:43:53.677Z,1.97
2018-01-29T20:46:21.266Z,2.10
2018-01-29T20:48:48.875Z,1.63
2018-01-29T20:51:16.487Z,1.73
2018-01-29T20:53:44.372Z,1.43
2018-01-29T20:56:11.956Z,1.03
2018-01-29T20:58:39.543Z,1.30
2018-01-29T21:01:07.160Z,2.03
2018-01-29T21:03:34.759Z,1.87
2018-01-29T21:06:02.374Z,1.90
2018-01-29T21:08:29.963Z,1.70
2018-01-29T21:10:57.612Z,1.80
2018-01-29T21:13:25.205Z,2.53
2018-01-29T21:15:52.823Z,2.30
2018-01-29T21:18:20.402Z,1.90
2018-01-29T21:20:48.032Z,2.00
2018-01-29T21:23:15.637Z,1.53
2018-01-29T21:25:43.241Z,2.40
2018-01-29T21:28:10.823Z,2.00
2018-01-29T21:30:38.663Z,1.90
2018-01-29T21:33:06.253Z,1.93
2018-01-29T21:35:33.835Z,1.90
2018-01-29T21:38:01.443Z,1.70
2018-01-29T21:40:29.030Z,1.70
2018-01-29T21:42:56.637Z,2.07
2018-01-29T21:45:24.234Z,1.87
2018-01-29T21:47:51.866Z,1.70
2018-01-29T21:50:49.409Z,2.77
2018-01-29T21:53:20.556Z,2.37
2018-01-29T21:55:48.872Z,1.50
2018-01-29T21:58:16.463Z,2.40
2018-01-29T22:00:44.107Z,1.77
2018-01-29T22:03:25.318Z,1.47
2018-01-29T22:05:54.302Z,2.00
2018-01-29T22:08:21.945Z,1.73
2018-01-29T22:11:05.335Z,1.40
2018-01-29T22:13:37.217Z,1.67
2018-01-29T22:16:04.822Z,1.57
2018-01-29T22:18:33.026Z,2.57
2018-01-29T22:21:20.951Z,1.30
2018-01-29T22:23:48.544Z,2.07
2018-01-29T22:26:23.460Z,1.97
2018-01-29T22:28:58.256Z,1.90
2018-01-29T22:31:28.912Z,2.00
2018-01-29T22:33:56.499Z,1.70
2018-01-29T22:36:26.967Z,1.60
2018-01-29T22:38:54.673Z,1.87
2018-01-29T22:41:26.664Z,2.00
2018-01-29T22:43:54.491Z,1.73
2018-01-29T22:46:22.152Z,2.17
2018-01-29T22:49:04.336Z,2.43
2018-01-29T22:51:31.917Z,2.00
2018-01-29T22:54:02.397Z,1.47
2018-01-29T22:56:33.932Z,1.70
2018-01-29T22:59:06.992Z,2.17
2018-01-29T23:18:40.698Z,1.60
2018-01-29T23:23:58.584Z,1.37
2018-01-29T23:26:26.161Z,1.90
2018-01-29T23:28:53.783Z,1.27
2018-01-29T23:31:33.496Z,1.23
2018-01-29T23:34:09.436Z,1.23
2018-01-29T23:36:40.392Z,1.07
2018-01-29T23:39:08.003Z,1.27
2018-01-29T23:41:53.608Z,1.10
2018-01-29T23:47:28.125Z,1.40
2018-01-29T23:49:55.739Z,1.30
2018-01-29T23:52:23.331Z,1.10
2018-01-29T23:54:50.944Z,1.40
2018-01-29T23:57:18.543Z,1.00
2018-01-29T23:59:46.325Z,1.40
